sensor_id;sensor_type;location;lat;lon;timestamp;P1;durP1;ratioP1;P2;durP2;ratioP2
4430;SDS011;2228;48.140;11.488;2023-01-24T00:00:35;68.78;;;29.73;;
4430;SDS011;2228;48.140;11.488;2023-01-24T00:03:03;68.50;;;29.20;;
4430;SDS011;2228;48.140;11.488;2023-01-24T00:05:32;72.00;;;29.17;;
4430;SDS011;2228;48.140;11.488;2023-01-24T00:08:00;61.40;;;26.90;;
4430;SDS011;2228;48.140;11.488;2023-01-24T00:10:27;64.82;;;26.90;;
4430;SDS011;2228;48.140;11.488;2023-01-24T00:12:54;67.60;;;29.20;;
4430;SDS011;2228;48.140;11.488;2023-01-24T00:15:21;69.23;;;28.37;;
4430;SDS011;2228;48.140;11.488;2023-01-24T00:17:48;66.30;;;28.77;;
4430;SDS011;2228;48.140;11.488;2023-01-24T00:20:16;68.90;;;28.25;;
4430;SDS011;2228;48.140;11.488;2023-01-24T00:22:43;66.22;;;27.33;;
4430;SDS011;2228;48.140;11.488;2023-01-24T00:25:10;66.43;;;28.05;;
4430;SDS011;2228;48.140;11.488;2023-01-24T00:27:37;66.28;;;29.38;;
4430;SDS011;2228;48.140;11.488;2023-01-24T00:30:05;67.47;;;29.30;;
4430;SDS011;2228;48.140;11.488;2023-01-24T00:32:32;73.03;;;29.98;;
4430;SDS011;2228;48.140;11.488;2023-01-24T00:34:59;66.53;;;28.83;;
4430;SDS011;2228;48.140;11.488;2023-01-24T00:37:28;72.65;;;29.70;;
4430;SDS011;2228;48.140;11.488;2023-01-24T00:39:55;68.85;;;30.55;;
4430;SDS011;2228;48.140;11.488;2023-01-24T00:42:22;71.85;;;29.92;;
4430;SDS011;2228;48.140;11.488;2023-01-24T00:44:49;74.75;;;29.52;;
4430;SDS011;2228;48.140;11.488;2023-01-24T00:47:16;70.80;;;29.45;;
4430;SDS011;2228;48.140;11.488;2023-01-24T00:49:43;67.88;;;29.27;;
4430;SDS011;2228;48.140;11.488;2023-01-24T00:52:10;66.85;;;28.73;;
4430;SDS011;2228;48.140;11.488;2023-01-24T00:54:38;64.78;;;28.80;;
4430;SDS011;2228;48.140;11.488;2023-01-24T00:57:05;68.80;;;28.80;;
4430;SDS011;2228;48.140;11.488;2023-01-24T00:59:32;80.68;;;30.65;;
4430;SDS011;2228;48.140;11.488;2023-01-24T01:01:59;76.65;;;30.77;;
4430;SDS011;2228;48.140;11.488;2023-01-24T01:04:26;76.05;;;29.02;;
4430;SDS011;2228;48.140;11.488;2023-01-24T01:06:53;80.55;;;30.80;;
4430;SDS011;2228;48.140;11.488;2023-01-24T01:09:20;78.15;;;31.15;;
4430;SDS011;2228;48.140;11.488;2023-01-24T01:11:48;75.25;;;30.35;;
4430;SDS011;2228;48.140;11.488;2023-01-24T01:14:15;79.90;;;31.33;;
4430;SDS011;2228;48.140;11.488;2023-01-24T01:16:42;74.65;;;31.40;;
4430;SDS011;2228;48.140;11.488;2023-01-24T01:19:09;82.20;;;32.63;;
4430;SDS011;2228;48.140;11.488;2023-01-24T01:21:36;94.63;;;35.50;;
4430;SDS011;2228;48.140;11.488;2023-01-24T01:24:03;91.75;;;34.25;;
4430;SDS011;2228;48.140;11.488;2023-01-24T01:26:30;99.18;;;33.35;;
4430;SDS011;2228;48.140;11.488;2023-01-24T01:28:59;87.60;;;35.20;;
4430;SDS011;2228;48.140;11.488;2023-01-24T01:31:26;92.40;;;35.90;;
4430;SDS011;2228;48.140;11.488;2023-01-24T01:33:53;85.20;;;35.05;;
4430;SDS011;2228;48.140;11.488;2023-01-24T01:36:20;88.55;;;34.08;;
4430;SDS011;2228;48.140;11.488;2023-01-24T01:38:47;89.43;;;34.60;;
4430;SDS011;2228;48.140;11.488;2023-01-24T01:41:14;85.30;;;33.33;;
4430;SDS011;2228;48.140;11.488;2023-01-24T01:43:41;83.32;;;32.78;;
4430;SDS011;2228;48.140;11.488;2023-01-24T01:46:24;81.57;;;32.47;;
4430;SDS011;2228;48.140;11.488;2023-01-24T01:48:55;90.10;;;32.40;;
4430;SDS011;2228;48.140;11.488;2023-01-24T01:51:27;73.32;;;30.65;;
4430;SDS011;2228;48.140;11.488;2023-01-24T01:53:59;74.47;;;30.70;;
4430;SDS011;2228;48.140;11.488;2023-01-24T01:56:31;76.03;;;30.02;;
4430;SDS011;2228;48.140;11.488;2023-01-24T01:59:02;81.70;;;32.67;;
4430;SDS011;2228;48.140;11.488;2023-01-24T02:01:35;75.22;;;31.23;;
4430;SDS011;2228;48.140;11.488;2023-01-24T02:04:03;80.20;;;31.50;;
4430;SDS011;2228;48.140;11.488;2023-01-24T02:06:40;72.93;;;30.60;;
4430;SDS011;2228;48.140;11.488;2023-01-24T02:09:11;75.72;;;29.75;;
4430;SDS011;2228;48.140;11.488;2023-01-24T02:11:42;76.90;;;29.75;;
4430;SDS011;2228;48.140;11.488;2023-01-24T02:14:11;75.72;;;30.67;;
4430;SDS011;2228;48.140;11.488;2023-01-24T02:16:57;80.32;;;32.38;;
4430;SDS011;2228;48.140;11.488;2023-01-24T02:22:19;75.93;;;30.00;;
4430;SDS011;2228;48.140;11.488;2023-01-24T02:24:59;74.90;;;30.10;;
4430;SDS011;2228;48.140;11.488;2023-01-24T02:27:33;80.13;;;30.33;;
4430;SDS011;2228;48.140;11.488;2023-01-24T02:30:00;72.32;;;29.23;;
4430;SDS011;2228;48.140;11.488;2023-01-24T02:32:28;78.93;;;29.55;;
4430;SDS011;2228;48.140;11.488;2023-01-24T02:34:55;78.47;;;31.67;;
4430;SDS011;2228;48.140;11.488;2023-01-24T02:37:22;84.28;;;30.88;;
4430;SDS011;2228;48.140;11.488;2023-01-24T02:39:51;70.80;;;29.30;;
4430;SDS011;2228;48.140;11.488;2023-01-24T02:42:24;72.30;;;30.60;;
4430;SDS011;2228;48.140;11.488;2023-01-24T02:44:57;72.85;;;29.60;;
4430;SDS011;2228;48.140;11.488;2023-01-24T02:47:30;74.55;;;30.40;;
4430;SDS011;2228;48.140;11.488;2023-01-24T02:50:01;74.72;;;30.17;;
4430;SDS011;2228;48.140;11.488;2023-01-24T02:52:28;75.70;;;30.70;;
4430;SDS011;2228;48.140;11.488;2023-01-24T02:55:13;73.82;;;32.30;;
4430;SDS011;2228;48.140;11.488;2023-01-24T02:57:40;79.47;;;30.55;;
4430;SDS011;2228;48.140;11.488;2023-01-24T03:00:26;78.10;;;31.67;;
4430;SDS011;2228;48.140;11.488;2023-01-24T03:02:53;84.10;;;32.17;;
4430;SDS011;2228;48.140;11.488;2023-01-24T03:05:20;80.85;;;31.95;;
4430;SDS011;2228;48.140;11.488;2023-01-24T03:07:47;80.78;;;32.63;;
4430;SDS011;2228;48.140;11.488;2023-01-24T03:10:15;81.40;;;32.10;;
4430;SDS011;2228;48.140;11.488;2023-01-24T03:12:43;85.63;;;32.97;;
4430;SDS011;2228;48.140;11.488;2023-01-24T03:15:30;87.28;;;33.10;;
4430;SDS011;2228;48.140;11.488;2023-01-24T03:18:15;81.30;;;31.33;;
4430;SDS011;2228;48.140;11.488;2023-01-24T03:20:59;80.63;;;31.23;;
4430;SDS011;2228;48.140;11.488;2023-01-24T03:23:43;79.25;;;30.83;;
4430;SDS011;2228;48.140;11.488;2023-01-24T03:26:28;78.25;;;29.95;;
4430;SDS011;2228;48.140;11.488;2023-01-24T03:29:12;82.50;;;31.30;;
4430;SDS011;2228;48.140;11.488;2023-01-24T03:31:58;74.30;;;31.57;;
4430;SDS011;2228;48.140;11.488;2023-01-24T03:34:42;78.10;;;30.67;;
4430;SDS011;2228;48.140;11.488;2023-01-24T03:37:14;71.80;;;30.38;;
4430;SDS011;2228;48.140;11.488;2023-01-24T03:40:03;80.47;;;30.17;;
4430;SDS011;2228;48.140;11.488;2023-01-24T03:42:31;81.18;;;31.55;;
4430;SDS011;2228;48.140;11.488;2023-01-24T03:44:59;83.25;;;30.90;;
4430;SDS011;2228;48.140;11.488;2023-01-24T03:47:28;78.15;;;29.60;;
4430;SDS011;2228;48.140;11.488;2023-01-24T03:49:54;81.95;;;31.15;;
4430;SDS011;2228;48.140;11.488;2023-01-24T03:52:39;77.82;;;31.02;;
4430;SDS011;2228;48.140;11.488;2023-01-24T03:55:06;78.22;;;31.50;;
4430;SDS011;2228;48.140;11.488;2023-01-24T03:57:33;83.85;;;30.30;;
4430;SDS011;2228;48.140;11.488;2023-01-24T04:00:00;74.45;;;29.00;;
4430;SDS011;2228;48.140;11.488;2023-01-24T04:02:28;71.28;;;29.80;;
4430;SDS011;2228;48.140;11.488;2023-01-24T04:04:55;73.47;;;29.80;;
4430;SDS011;2228;48.140;11.488;2023-01-24T04:07:40;78.97;;;29.92;;
4430;SDS011;2228;48.140;11.488;2023-01-24T04:10:08;75.65;;;29.85;;
4430;SDS011;2228;48.140;11.488;2023-01-24T04:12:36;83.35;;;30.90;;
4430;SDS011;2228;48.140;11.488;2023-01-24T04:15:03;73.03;;;28.85;;
4430;SDS011;2228;48.140;11.488;2023-01-24T04:17:32;83.47;;;29.88;;
4430;SDS011;2228;48.140;11.488;2023-01-24T04:19:59;74.22;;;29.73;;
4430;SDS011;2228;48.140;11.488;2023-01-24T04:22:26;69.20;;;29.97;;
4430;SDS011;2228;48.140;11.488;2023-01-24T04:24:53;77.20;;;30.70;;
4430;SDS011;2228;48.140;11.488;2023-01-24T04:27:20;78.22;;;31.23;;
4430;SDS011;2228;48.140;11.488;2023-01-24T04:29:47;67.60;;;28.60;;
4430;SDS011;2228;48.140;11.488;2023-01-24T04:32:14;77.68;;;29.50;;
4430;SDS011;2228;48.140;11.488;2023-01-24T04:34:42;83.95;;;30.48;;
4430;SDS011;2228;48.140;11.488;2023-01-24T04:37:09;77.05;;;30.20;;
4430;SDS011;2228;48.140;11.488;2023-01-24T04:39:36;83.05;;;31.80;;
4430;SDS011;2228;48.140;11.488;2023-01-24T04:42:03;74.22;;;30.13;;
4430;SDS011;2228;48.140;11.488;2023-01-24T04:44:30;77.55;;;29.90;;
4430;SDS011;2228;48.140;11.488;2023-01-24T04:46:58;82.75;;;31.30;;
4430;SDS011;2228;48.140;11.488;2023-01-24T04:49:26;74.53;;;31.15;;
4430;SDS011;2228;48.140;11.488;2023-01-24T04:51:54;81.35;;;31.23;;
4430;SDS011;2228;48.140;11.488;2023-01-24T04:54:21;74.72;;;29.70;;
4430;SDS011;2228;48.140;11.488;2023-01-24T04:56:48;70.28;;;29.38;;
4430;SDS011;2228;48.140;11.488;2023-01-24T04:59:16;78.95;;;30.00;;
4430;SDS011;2228;48.140;11.488;2023-01-24T05:01:43;78.57;;;29.60;;
4430;SDS011;2228;48.140;11.488;2023-01-24T05:04:10;77.47;;;28.83;;
4430;SDS011;2228;48.140;11.488;2023-01-24T05:06:37;70.70;;;28.40;;
4430;SDS011;2228;48.140;11.488;2023-01-24T05:09:05;80.07;;;29.10;;
4430;SDS011;2228;48.140;11.488;2023-01-24T05:11:32;82.43;;;29.43;;
4430;SDS011;2228;48.140;11.488;2023-01-24T05:14:01;80.40;;;29.23;;
4430;SDS011;2228;48.140;11.488;2023-01-24T05:16:28;79.43;;;28.58;;
4430;SDS011;2228;48.140;11.488;2023-01-24T05:18:55;82.23;;;29.10;;
4430;SDS011;2228;48.140;11.488;2023-01-24T05:21:22;80.60;;;30.48;;
4430;SDS011;2228;48.140;11.488;2023-01-24T05:23:49;83.80;;;30.65;;
4430;SDS011;2228;48.140;11.488;2023-01-24T05:26:18;82.65;;;29.70;;
4430;SDS011;2228;48.140;11.488;2023-01-24T05:28:47;78.15;;;29.40;;
4430;SDS011;2228;48.140;11.488;2023-01-24T05:31:14;81.65;;;29.50;;
4430;SDS011;2228;48.140;11.488;2023-01-24T05:33:41;73.67;;;29.00;;
4430;SDS011;2228;48.140;11.488;2023-01-24T05:36:09;76.53;;;28.77;;
4430;SDS011;2228;48.140;11.488;2023-01-24T05:38:37;78.60;;;28.27;;
4430;SDS011;2228;48.140;11.488;2023-01-24T05:41:05;79.80;;;28.83;;
4430;SDS011;2228;48.140;11.488;2023-01-24T05:43:35;87.90;;;29.17;;
4430;SDS011;2228;48.140;11.488;2023-01-24T05:46:04;73.43;;;28.20;;
4430;SDS011;2228;48.140;11.488;2023-01-24T05:48:34;73.65;;;28.08;;
4430;SDS011;2228;48.140;11.488;2023-01-24T05:51:02;87.03;;;28.67;;
4430;SDS011;2228;48.140;11.488;2023-01-24T05:53:31;83.05;;;29.00;;
4430;SDS011;2228;48.140;11.488;2023-01-24T05:56:00;88.10;;;29.05;;
4430;SDS011;2228;48.140;11.488;2023-01-24T05:58:29;92.40;;;31.42;;
4430;SDS011;2228;48.140;11.488;2023-01-24T06:01:01;81.63;;;28.55;;
4430;SDS011;2228;48.140;11.488;2023-01-24T06:03:31;90.57;;;30.35;;
4430;SDS011;2228;48.140;11.488;2023-01-24T06:05:58;91.05;;;30.38;;
4430;SDS011;2228;48.140;11.488;2023-01-24T06:08:25;94.72;;;31.73;;
4430;SDS011;2228;48.140;11.488;2023-01-24T06:10:52;92.93;;;30.90;;
4430;SDS011;2228;48.140;11.488;2023-01-24T06:13:22;93.32;;;31.80;;
4430;SDS011;2228;48.140;11.488;2023-01-24T06:15:49;90.28;;;31.25;;
4430;SDS011;2228;48.140;11.488;2023-01-24T06:18:17;102.82;;;32.50;;
4430;SDS011;2228;48.140;11.488;2023-01-24T06:20:45;106.78;;;33.72;;
4430;SDS011;2228;48.140;11.488;2023-01-24T06:23:23;107.00;;;34.53;;
4430;SDS011;2228;48.140;11.488;2023-01-24T06:25:52;106.07;;;34.63;;
4430;SDS011;2228;48.140;11.488;2023-01-24T06:28:19;101.85;;;34.20;;
4430;SDS011;2228;48.140;11.488;2023-01-24T06:30:50;112.47;;;35.33;;
4430;SDS011;2228;48.140;11.488;2023-01-24T06:33:30;115.75;;;35.67;;
4430;SDS011;2228;48.140;11.488;2023-01-24T06:38:57;117.72;;;35.03;;
4430;SDS011;2228;48.140;11.488;2023-01-24T06:41:25;103.80;;;33.50;;
4430;SDS011;2228;48.140;11.488;2023-01-24T06:43:52;103.28;;;35.25;;
4430;SDS011;2228;48.140;11.488;2023-01-24T06:46:20;110.05;;;34.63;;
4430;SDS011;2228;48.140;11.488;2023-01-24T06:48:48;107.00;;;34.35;;
4430;SDS011;2228;48.140;11.488;2023-01-24T06:51:15;108.35;;;34.42;;
4430;SDS011;2228;48.140;11.488;2023-01-24T06:53:42;102.90;;;31.98;;
4430;SDS011;2228;48.140;11.488;2023-01-24T06:56:10;100.82;;;32.67;;
4430;SDS011;2228;48.140;11.488;2023-01-24T06:58:37;114.05;;;32.83;;
4430;SDS011;2228;48.140;11.488;2023-01-24T07:01:04;98.00;;;33.15;;
4430;SDS011;2228;48.140;11.488;2023-01-24T07:03:31;95.72;;;31.55;;
4430;SDS011;2228;48.140;11.488;2023-01-24T07:06:02;97.73;;;31.60;;
4430;SDS011;2228;48.140;11.488;2023-01-24T07:08:31;105.33;;;34.47;;
4430;SDS011;2228;48.140;11.488;2023-01-24T07:10:59;95.93;;;34.45;;
4430;SDS011;2228;48.140;11.488;2023-01-24T07:13:26;91.22;;;33.55;;
4430;SDS011;2228;48.140;11.488;2023-01-24T07:15:53;92.40;;;33.45;;
4430;SDS011;2228;48.140;11.488;2023-01-24T07:18:21;86.70;;;32.75;;
4430;SDS011;2228;48.140;11.488;2023-01-24T07:20:49;102.65;;;34.67;;
4430;SDS011;2228;48.140;11.488;2023-01-24T07:23:22;102.20;;;34.97;;
4430;SDS011;2228;48.140;11.488;2023-01-24T07:25:53;96.50;;;35.13;;
4430;SDS011;2228;48.140;11.488;2023-01-24T07:28:21;99.70;;;36.60;;
4430;SDS011;2228;48.140;11.488;2023-01-24T07:30:48;106.75;;;35.30;;
4430;SDS011;2228;48.140;11.488;2023-01-24T07:33:17;95.95;;;35.70;;
4430;SDS011;2228;48.140;11.488;2023-01-24T07:35:45;95.43;;;34.65;;
4430;SDS011;2228;48.140;11.488;2023-01-24T07:38:12;103.60;;;36.80;;
4430;SDS011;2228;48.140;11.488;2023-01-24T07:40:40;90.15;;;33.53;;
4430;SDS011;2228;48.140;11.488;2023-01-24T07:43:08;84.93;;;33.47;;
4430;SDS011;2228;48.140;11.488;2023-01-24T07:45:35;90.83;;;32.60;;
4430;SDS011;2228;48.140;11.488;2023-01-24T07:48:03;89.13;;;33.30;;
4430;SDS011;2228;48.140;11.488;2023-01-24T07:50:31;92.22;;;31.60;;
4430;SDS011;2228;48.140;11.488;2023-01-24T07:52:59;83.97;;;32.38;;
4430;SDS011;2228;48.140;11.488;2023-01-24T07:55:27;75.72;;;30.20;;
4430;SDS011;2228;48.140;11.488;2023-01-24T07:57:59;84.15;;;31.27;;
4430;SDS011;2228;48.140;11.488;2023-01-24T08:00:27;91.25;;;32.88;;
4430;SDS011;2228;48.140;11.488;2023-01-24T08:02:55;90.72;;;31.60;;
4430;SDS011;2228;48.140;11.488;2023-01-24T08:05:24;87.20;;;30.80;;
4430;SDS011;2228;48.140;11.488;2023-01-24T08:07:53;80.85;;;29.40;;
4430;SDS011;2228;48.140;11.488;2023-01-24T08:10:20;77.50;;;30.38;;
4430;SDS011;2228;48.140;11.488;2023-01-24T08:12:47;79.13;;;31.17;;
4430;SDS011;2228;48.140;11.488;2023-01-24T08:15:20;74.20;;;31.60;;
4430;SDS011;2228;48.140;11.488;2023-01-24T08:17:47;80.47;;;31.83;;
4430;SDS011;2228;48.140;11.488;2023-01-24T08:20:14;86.25;;;31.30;;
4430;SDS011;2228;48.140;11.488;2023-01-24T08:22:41;74.90;;;29.30;;
4430;SDS011;2228;48.140;11.488;2023-01-24T08:25:08;79.17;;;30.63;;
4430;SDS011;2228;48.140;11.488;2023-01-24T08:27:38;77.47;;;29.90;;
4430;SDS011;2228;48.140;11.488;2023-01-24T08:30:06;87.05;;;29.52;;
4430;SDS011;2228;48.140;11.488;2023-01-24T08:32:37;81.85;;;29.92;;
4430;SDS011;2228;48.140;11.488;2023-01-24T08:35:04;81.20;;;30.03;;
4430;SDS011;2228;48.140;11.488;2023-01-24T08:37:31;85.15;;;31.63;;
4430;SDS011;2228;48.140;11.488;2023-01-24T08:39:58;80.07;;;30.10;;
4430;SDS011;2228;48.140;11.488;2023-01-24T08:42:25;76.65;;;28.55;;
4430;SDS011;2228;48.140;11.488;2023-01-24T08:44:52;71.63;;;29.35;;
4430;SDS011;2228;48.140;11.488;2023-01-24T08:47:19;74.57;;;28.38;;
4430;SDS011;2228;48.140;11.488;2023-01-24T08:49:47;76.25;;;26.58;;
4430;SDS011;2228;48.140;11.488;2023-01-24T08:52:15;68.53;;;28.63;;
4430;SDS011;2228;48.140;11.488;2023-01-24T08:54:42;72.70;;;27.92;;
4430;SDS011;2228;48.140;11.488;2023-01-24T08:57:09;74.97;;;27.85;;
4430;SDS011;2228;48.140;11.488;2023-01-24T08:59:36;69.95;;;27.92;;
4430;SDS011;2228;48.140;11.488;2023-01-24T09:02:03;75.30;;;28.55;;
4430;SDS011;2228;48.140;11.488;2023-01-24T09:04:30;72.28;;;27.38;;
4430;SDS011;2228;48.140;11.488;2023-01-24T09:06:59;74.85;;;27.95;;
4430;SDS011;2228;48.140;11.488;2023-01-24T09:09:26;68.97;;;28.03;;
4430;SDS011;2228;48.140;11.488;2023-01-24T09:11:53;67.22;;;27.55;;
4430;SDS011;2228;48.140;11.488;2023-01-24T09:14:20;69.03;;;26.92;;
4430;SDS011;2228;48.140;11.488;2023-01-24T09:16:47;69.13;;;26.17;;
4430;SDS011;2228;48.140;11.488;2023-01-24T09:19:14;68.20;;;27.70;;
4430;SDS011;2228;48.140;11.488;2023-01-24T09:21:43;67.22;;;27.02;;
4430;SDS011;2228;48.140;11.488;2023-01-24T09:24:14;65.25;;;27.20;;
4430;SDS011;2228;48.140;11.488;2023-01-24T09:26:41;68.15;;;27.08;;
4430;SDS011;2228;48.140;11.488;2023-01-24T09:29:10;63.30;;;27.20;;
4430;SDS011;2228;48.140;11.488;2023-01-24T09:31:37;69.82;;;28.80;;
4430;SDS011;2228;48.140;11.488;2023-01-24T09:34:04;69.78;;;29.23;;
4430;SDS011;2228;48.140;11.488;2023-01-24T09:36:31;58.67;;;26.67;;
4430;SDS011;2228;48.140;11.488;2023-01-24T09:38:58;62.55;;;27.73;;
4430;SDS011;2228;48.140;11.488;2023-01-24T09:41:30;62.33;;;26.95;;
4430;SDS011;2228;48.140;11.488;2023-01-24T09:44:10;65.18;;;28.67;;
4430;SDS011;2228;48.140;11.488;2023-01-24T09:46:47;56.35;;;26.42;;
4430;SDS011;2228;48.140;11.488;2023-01-24T09:49:17;60.08;;;26.02;;
4430;SDS011;2228;48.140;11.488;2023-01-24T09:51:53;59.70;;;26.57;;
4430;SDS011;2228;48.140;11.488;2023-01-24T09:54:23;64.50;;;28.60;;
4430;SDS011;2228;48.140;11.488;2023-01-24T09:56:57;63.20;;;26.23;;
4430;SDS011;2228;48.140;11.488;2023-01-24T09:59:26;59.70;;;26.10;;
4430;SDS011;2228;48.140;11.488;2023-01-24T10:02:00;59.45;;;27.70;;
4430;SDS011;2228;48.140;11.488;2023-01-24T10:04:30;64.07;;;28.08;;
4430;SDS011;2228;48.140;11.488;2023-01-24T10:07:25;59.83;;;27.60;;
4430;SDS011;2228;48.140;11.488;2023-01-24T10:10:18;57.50;;;25.50;;
4430;SDS011;2228;48.140;11.488;2023-01-24T10:13:02;59.78;;;28.15;;
4430;SDS011;2228;48.140;11.488;2023-01-24T10:15:39;63.95;;;29.48;;
4430;SDS011;2228;48.140;11.488;2023-01-24T10:18:13;59.97;;;27.90;;
4430;SDS011;2228;48.140;11.488;2023-01-24T10:21:09;59.88;;;27.27;;
4430;SDS011;2228;48.140;11.488;2023-01-24T10:23:51;56.17;;;27.13;;
4430;SDS011;2228;48.140;11.488;2023-01-24T10:26:22;54.88;;;26.63;;
4430;SDS011;2228;48.140;11.488;2023-01-24T10:28:56;54.97;;;25.70;;
4430;SDS011;2228;48.140;11.488;2023-01-24T10:31:34;64.25;;;27.48;;
4430;SDS011;2228;48.140;11.488;2023-01-24T10:34:08;59.97;;;26.60;;
4430;SDS011;2228;48.140;11.488;2023-01-24T10:36:39;56.25;;;25.25;;
4430;SDS011;2228;48.140;11.488;2023-01-24T10:39:09;56.20;;;26.58;;
4430;SDS011;2228;48.140;11.488;2023-01-24T10:41:36;55.08;;;26.27;;
4430;SDS011;2228;48.140;11.488;2023-01-24T10:44:08;57.28;;;27.48;;
4430;SDS011;2228;48.140;11.488;2023-01-24T10:49:45;54.38;;;26.20;;
4430;SDS011;2228;48.140;11.488;2023-01-24T10:52:17;58.10;;;26.05;;
4430;SDS011;2228;48.140;11.488;2023-01-24T10:54:46;57.97;;;28.15;;
4430;SDS011;2228;48.140;11.488;2023-01-24T11:03:18;63.80;;;26.58;;
4430;SDS011;2228;48.140;11.488;2023-01-24T11:05:46;55.88;;;24.90;;
4430;SDS011;2228;48.140;11.488;2023-01-24T11:08:17;55.10;;;24.67;;
4430;SDS011;2228;48.140;11.488;2023-01-24T11:10:46;60.20;;;26.80;;
4430;SDS011;2228;48.140;11.488;2023-01-24T11:13:24;58.80;;;25.70;;
4430;SDS011;2228;48.140;11.488;2023-01-24T11:16:01;56.80;;;27.25;;
4430;SDS011;2228;48.140;11.488;2023-01-24T11:18:34;54.28;;;26.23;;
4430;SDS011;2228;48.140;11.488;2023-01-24T11:21:12;57.57;;;26.83;;
4430;SDS011;2228;48.140;11.488;2023-01-24T11:23:41;57.80;;;27.05;;
4430;SDS011;2228;48.140;11.488;2023-01-24T11:26:19;52.72;;;24.92;;
4430;SDS011;2228;48.140;11.488;2023-01-24T11:28:55;56.50;;;23.70;;
4430;SDS011;2228;48.140;11.488;2023-01-24T11:31:26;56.27;;;25.63;;
4430;SDS011;2228;48.140;11.488;2023-01-24T11:34:00;52.55;;;25.45;;
4430;SDS011;2228;48.140;11.488;2023-01-24T11:36:48;54.85;;;24.88;;
4430;SDS011;2228;48.140;11.488;2023-01-24T11:39:25;49.57;;;23.70;;
4430;SDS011;2228;48.140;11.488;2023-01-24T11:42:02;53.20;;;24.13;;
4430;SDS011;2228;48.140;11.488;2023-01-24T11:44:39;54.00;;;23.70;;
4430;SDS011;2228;48.140;11.488;2023-01-24T11:47:23;52.03;;;23.60;;
4430;SDS011;2228;48.140;11.488;2023-01-24T11:50:02;54.50;;;25.02;;
4430;SDS011;2228;48.140;11.488;2023-01-24T11:52:47;46.95;;;23.23;;
4430;SDS011;2228;48.140;11.488;2023-01-24T11:55:26;56.00;;;25.35;;
4430;SDS011;2228;48.140;11.488;2023-01-24T11:58:11;52.22;;;23.35;;
4430;SDS011;2228;48.140;11.488;2023-01-24T12:01:08;48.87;;;23.23;;
4430;SDS011;2228;48.140;11.488;2023-01-24T12:06:54;46.63;;;22.10;;
4430;SDS011;2228;48.140;11.488;2023-01-24T12:09:26;42.35;;;21.35;;
4430;SDS011;2228;48.140;11.488;2023-01-24T12:12:02;45.85;;;20.55;;
4430;SDS011;2228;48.140;11.488;2023-01-24T12:14:42;45.50;;;21.25;;
4430;SDS011;2228;48.140;11.488;2023-01-24T12:17:33;41.25;;;20.23;;
4430;SDS011;2228;48.140;11.488;2023-01-24T12:23:26;41.40;;;21.35;;
4430;SDS011;2228;48.140;11.488;2023-01-24T12:26:00;46.47;;;21.50;;
4430;SDS011;2228;48.140;11.488;2023-01-24T12:28:33;40.08;;;20.90;;
4430;SDS011;2228;48.140;11.488;2023-01-24T12:31:04;41.30;;;21.25;;
4430;SDS011;2228;48.140;11.488;2023-01-24T12:33:35;40.00;;;21.20;;
4430;SDS011;2228;48.140;11.488;2023-01-24T12:36:11;44.10;;;20.92;;
4430;SDS011;2228;48.140;11.488;2023-01-24T12:38:45;37.35;;;19.80;;
4430;SDS011;2228;48.140;11.488;2023-01-24T12:41:15;41.37;;;21.30;;
4430;SDS011;2228;48.140;11.488;2023-01-24T12:43:53;42.17;;;21.35;;
4430;SDS011;2228;48.140;11.488;2023-01-24T12:46:29;46.05;;;21.10;;
4430;SDS011;2228;48.140;11.488;2023-01-24T12:49:11;41.25;;;20.83;;
4430;SDS011;2228;48.140;11.488;2023-01-24T12:51:46;35.83;;;19.65;;
4430;SDS011;2228;48.140;11.488;2023-01-24T12:54:21;38.95;;;19.73;;
4430;SDS011;2228;48.140;11.488;2023-01-24T12:56:56;40.88;;;20.48;;
4430;SDS011;2228;48.140;11.488;2023-01-24T12:59:29;41.67;;;21.85;;
4430;SDS011;2228;48.140;11.488;2023-01-24T13:02:12;41.95;;;21.10;;
4430;SDS011;2228;48.140;11.488;2023-01-24T13:04:54;41.88;;;21.58;;
4430;SDS011;2228;48.140;11.488;2023-01-24T13:07:31;35.42;;;19.42;;
4430;SDS011;2228;48.140;11.488;2023-01-24T13:10:12;37.17;;;19.40;;
4430;SDS011;2228;48.140;11.488;2023-01-24T13:12:43;36.83;;;20.67;;
4430;SDS011;2228;48.140;11.488;2023-01-24T13:15:14;43.80;;;21.15;;
4430;SDS011;2228;48.140;11.488;2023-01-24T13:18:02;36.63;;;20.05;;
4430;SDS011;2228;48.140;11.488;2023-01-24T13:20:45;44.57;;;20.67;;
4430;SDS011;2228;48.140;11.488;2023-01-24T13:23:30;38.88;;;20.77;;
4430;SDS011;2228;48.140;11.488;2023-01-24T13:26:23;43.88;;;21.27;;
4430;SDS011;2228;48.140;11.488;2023-01-24T13:29:12;39.83;;;20.70;;
4430;SDS011;2228;48.140;11.488;2023-01-24T13:31:50;43.42;;;22.45;;
4430;SDS011;2228;48.140;11.488;2023-01-24T13:34:26;43.05;;;21.90;;
4430;SDS011;2228;48.140;11.488;2023-01-24T13:36:56;41.75;;;20.92;;
4430;SDS011;2228;48.140;11.488;2023-01-24T13:39:28;42.50;;;21.02;;
4430;SDS011;2228;48.140;11.488;2023-01-24T13:42:03;39.55;;;21.20;;
4430;SDS011;2228;48.140;11.488;2023-01-24T13:44:32;42.10;;;21.20;;
4430;SDS011;2228;48.140;11.488;2023-01-24T13:47:19;45.65;;;21.95;;
4430;SDS011;2228;48.140;11.488;2023-01-24T13:52:48;46.08;;;22.50;;
4430;SDS011;2228;48.140;11.488;2023-01-24T13:58:28;46.05;;;23.27;;
4430;SDS011;2228;48.140;11.488;2023-01-24T14:00:59;51.15;;;25.40;;
4430;SDS011;2228;48.140;11.488;2023-01-24T14:03:29;45.72;;;23.88;;
4430;SDS011;2228;48.140;11.488;2023-01-24T14:06:05;42.45;;;22.83;;
4430;SDS011;2228;48.140;11.488;2023-01-24T14:08:38;51.28;;;24.10;;
4430;SDS011;2228;48.140;11.488;2023-01-24T14:11:19;49.95;;;24.10;;
4430;SDS011;2228;48.140;11.488;2023-01-24T14:13:59;49.42;;;24.10;;
4430;SDS011;2228;48.140;11.488;2023-01-24T14:19:26;49.93;;;25.30;;
4430;SDS011;2228;48.140;11.488;2023-01-24T14:21:57;49.05;;;22.98;;
4430;SDS011;2228;48.140;11.488;2023-01-24T14:24:32;45.70;;;23.53;;
4430;SDS011;2228;48.140;11.488;2023-01-24T14:27:13;48.72;;;23.83;;
4430;SDS011;2228;48.140;11.488;2023-01-24T14:29:45;51.95;;;25.52;;
4430;SDS011;2228;48.140;11.488;2023-01-24T14:32:17;51.72;;;25.10;;
4430;SDS011;2228;48.140;11.488;2023-01-24T14:34:48;49.35;;;25.60;;
4430;SDS011;2228;48.140;11.488;2023-01-24T14:37:19;46.17;;;24.00;;
4430;SDS011;2228;48.140;11.488;2023-01-24T14:39:47;57.25;;;25.38;;
4430;SDS011;2228;48.140;11.488;2023-01-24T14:42:14;55.05;;;25.52;;
4430;SDS011;2228;48.140;11.488;2023-01-24T14:44:49;57.20;;;25.02;;
4430;SDS011;2228;48.140;11.488;2023-01-24T14:47:19;53.78;;;25.00;;
4430;SDS011;2228;48.140;11.488;2023-01-24T14:49:48;52.95;;;24.95;;
4430;SDS011;2228;48.140;11.488;2023-01-24T14:52:18;54.13;;;25.63;;
4430;SDS011;2228;48.140;11.488;2023-01-24T14:54:47;56.55;;;26.40;;
4430;SDS011;2228;48.140;11.488;2023-01-24T14:57:19;55.85;;;25.15;;
4430;SDS011;2228;48.140;11.488;2023-01-24T14:59:59;59.78;;;26.67;;
4430;SDS011;2228;48.140;11.488;2023-01-24T15:02:28;54.03;;;24.50;;
4430;SDS011;2228;48.140;11.488;2023-01-24T15:04:55;59.15;;;26.98;;
4430;SDS011;2228;48.140;11.488;2023-01-24T15:07:22;57.17;;;25.48;;
4430;SDS011;2228;48.140;11.488;2023-01-24T15:09:49;59.08;;;26.45;;
4430;SDS011;2228;48.140;11.488;2023-01-24T15:12:24;59.70;;;27.13;;
4430;SDS011;2228;48.140;11.488;2023-01-24T15:14:54;59.05;;;26.85;;
4430;SDS011;2228;48.140;11.488;2023-01-24T15:17:25;57.90;;;26.38;;
4430;SDS011;2228;48.140;11.488;2023-01-24T15:19:54;56.20;;;25.70;;
4430;SDS011;2228;48.140;11.488;2023-01-24T15:22:24;56.40;;;25.00;;
4430;SDS011;2228;48.140;11.488;2023-01-24T15:24:54;56.88;;;26.50;;
4430;SDS011;2228;48.140;11.488;2023-01-24T15:27:30;55.70;;;27.17;;